Terminal Aerodrome Forecast
Issued by NWS

Home | Current Version | Previous Version | Text Only | Print | Product List | Glossary On
Versions: 1 2 3 4 5 6 7 8 9 10 11 12
236
FTPA31 PHFO 141735
TAFHJH
TAF
PHJH 141735Z 1418/1518 12008KT P6SM FEW050
     FM142100 05012KT P6SM SCT025 SCT050
     FM150400 VRB03KT P6SM SCT050
      AMD NOT SKED AFT 150400=

USA.gov is the U.S. government's official web portal to all federal, state and local government web resources and services.